createdAt,value
2023-03-21T00:04:12.653Z,38.3
2023-03-21T00:09:13.169Z,31.3
2023-03-21T00:14:14.570Z,39.1
2023-03-21T00:19:15.734Z,33.5
2023-03-21T00:24:16.142Z,32.4
2023-03-21T00:29:16.778Z,32.7
2023-03-21T00:34:20.001Z,30.9
2023-03-21T00:39:22.492Z,31
2023-03-21T00:44:22.956Z,35.7
2023-03-21T00:49:23.328Z,34
2023-03-21T00:54:23.704Z,30.5
2023-03-21T00:59:24.275Z,32.5
2023-03-21T01:04:24.679Z,31.3
2023-03-21T01:09:25.150Z,35.6
2023-03-21T01:14:25.854Z,29.8
2023-03-21T01:19:33.167Z,31.5
2023-03-21T01:24:31.322Z,30.2
2023-03-21T01:29:35.708Z,32.6
2023-03-21T01:34:36.194Z,31.7
2023-03-21T01:39:36.700Z,33.6
2023-03-21T01:44:37.224Z,32.3
2023-03-21T01:49:37.604Z,33.4
2023-03-21T01:54:37.970Z,33.6
2023-03-21T01:59:38.703Z,31.6
2023-03-21T02:04:39.146Z,31.6
2023-03-21T02:09:39.615Z,31.5
2023-03-21T02:14:40.404Z,31.8
2023-03-21T02:19:47.716Z,30.6
2023-03-21T02:24:46.499Z,29.6
2023-03-21T02:29:50.297Z,32.2
2023-03-21T02:34:50.779Z,33.2
2023-03-21T02:39:51.344Z,30.1
2023-03-21T02:44:51.894Z,32.2
2023-03-21T02:49:52.330Z,32.1
2023-03-21T02:59:58.473Z,31.9
2023-03-21T03:05:00.400Z,34.9
2023-03-21T03:10:06.103Z,31.3
2023-03-21T03:15:06.856Z,31.7
2023-03-21T03:20:15.857Z,28.6
2023-03-21T03:25:19.653Z,30.1
2023-03-21T03:30:09.383Z,30.6
2023-03-21T03:35:09.868Z,30.4
2023-03-21T03:40:10.216Z,30.8
2023-03-21T03:50:11.156Z,32.2
2023-03-21T03:55:11.797Z,26.8
2023-03-21T04:00:12.326Z,26.6
2023-03-21T04:05:12.767Z,28
2023-03-21T04:10:15.846Z,25.8
2023-03-21T04:15:16.431Z,29.2
2023-03-21T04:20:26.541Z,27.9
2023-03-21T04:25:33.260Z,29.7
2023-03-21T04:30:34.736Z,26.1
2023-03-21T04:35:37.528Z,24.5
2023-03-21T04:40:38.778Z,25.1
2023-03-21T04:45:39.570Z,27
2023-03-21T04:50:40.199Z,24.1
2023-03-21T04:55:40.597Z,27
2023-03-21T05:00:41.359Z,26.1
2023-03-21T05:05:41.752Z,26.9
2023-03-21T05:10:42.417Z,24.3
2023-03-21T05:15:43.000Z,27.3
2023-03-21T05:20:47.972Z,25.7
2023-03-21T05:25:48.698Z,24.1
2023-03-21T05:30:49.177Z,27.5
2023-03-21T05:35:49.838Z,27.8
2023-03-21T05:40:50.368Z,27.2
2023-03-21T05:45:50.910Z,26.7
2023-03-21T05:50:51.470Z,25.9
2023-03-21T05:55:52.257Z,22.2
2023-03-21T06:00:52.880Z,21.9
2023-03-21T06:05:53.346Z,21.3
2023-03-21T06:10:53.952Z,21.5
2023-03-21T06:15:54.749Z,21.5
2023-03-21T06:20:55.375Z,21.4
2023-03-21T06:25:56.072Z,22.5
2023-03-21T06:30:56.828Z,21.2
2023-03-21T06:35:57.849Z,20.2
2023-03-21T06:40:58.390Z,20.9
2023-03-21T06:45:59.276Z,13.9
2023-03-21T06:50:59.771Z,14.4
2023-03-21T06:56:00.250Z,11.5
2023-03-21T07:01:00.892Z,14.9
2023-03-21T07:06:01.403Z,16.3
2023-03-21T07:11:01.796Z,11.9
2023-03-21T07:16:02.525Z,10.4
2023-03-21T07:21:02.963Z,16.8
2023-03-21T07:26:03.348Z,15.6
2023-03-21T07:31:04.236Z,17.2
2023-03-21T07:36:05.034Z,16
2023-03-21T07:41:05.593Z,10.8
2023-03-21T07:46:06.458Z,13.9
2023-03-21T07:51:07.095Z,16.5
2023-03-21T07:56:07.594Z,22.6
2023-03-21T08:01:08.235Z,11.5
2023-03-21T08:06:08.670Z,21.1
2023-03-21T08:11:09.117Z,20.8
2023-03-21T08:16:09.632Z,27.9
2023-03-21T08:21:10.408Z,20.4
2023-03-21T08:26:10.809Z,17
2023-03-21T08:31:11.489Z,10.8
2023-03-21T08:36:12.813Z,24.1
2023-03-21T08:41:13.498Z,21.3
2023-03-21T08:46:13.967Z,15.5
2023-03-21T08:51:14.411Z,11.6
2023-03-21T08:56:14.790Z,18.9
2023-03-21T09:01:15.337Z,12.3
2023-03-21T09:06:15.763Z,7.9
2023-03-21T09:11:16.236Z,12.3
2023-03-21T09:16:16.867Z,14.9
2023-03-21T09:21:17.463Z,13.9
2023-03-21T09:26:17.965Z,6.7
2023-03-21T09:31:18.602Z,10.1
2023-03-21T09:36:19.769Z,10.9
2023-03-21T09:41:20.262Z,7.6
2023-03-21T09:46:20.814Z,5.4
2023-03-21T09:51:21.330Z,8.3
2023-03-21T09:56:21.841Z,6
2023-03-21T10:01:22.530Z,10.1
2023-03-21T10:06:23.020Z,11.5
2023-03-21T10:11:23.499Z,6.2
2023-03-21T10:16:24.211Z,5.2
2023-03-21T10:21:47.974Z,5.4
2023-03-21T10:26:32.660Z,4.5
2023-03-21T10:31:33.355Z,12.2
2023-03-21T10:36:34.273Z,12.2
2023-03-21T10:41:34.779Z,15.4
2023-03-21T10:46:36.171Z,12.1
2023-03-21T10:51:37.367Z,11.3
2023-03-21T10:56:37.931Z,7.4
2023-03-21T11:01:38.496Z,7.1
2023-03-21T11:06:39.457Z,9.6
2023-03-21T11:11:39.854Z,22.7
2023-03-21T11:16:41.145Z,8.3
2023-03-21T11:21:41.781Z,11.3
2023-03-21T11:26:42.430Z,6.6
2023-03-21T11:31:43.245Z,21.7
2023-03-21T11:36:43.984Z,8.8
2023-03-21T11:41:44.359Z,16.1
2023-03-21T11:46:45.698Z,10.9
2023-03-21T11:51:46.192Z,14.2
2023-03-21T11:56:46.620Z,5.7
2023-03-21T12:01:47.339Z,11.1
2023-03-21T12:06:47.792Z,13.9
2023-03-21T12:11:48.204Z,4.4
2023-03-21T12:16:48.782Z,14.9
2023-03-21T12:21:49.190Z,10.9
2023-03-21T12:26:49.615Z,12.1
2023-03-21T12:31:50.208Z,11.6
2023-03-21T12:36:51.270Z,13.9
2023-03-21T12:41:52.894Z,9.7
2023-03-21T12:46:54.318Z,28.1
2023-03-21T12:51:55.122Z,18.7
2023-03-21T12:56:55.604Z,14.8
2023-03-21T13:01:55.985Z,21.1
2023-03-21T13:06:56.412Z,15.8
2023-03-21T13:11:56.934Z,9.4
2023-03-21T13:16:59.891Z,15.7
2023-03-21T13:22:01.707Z,22.8
2023-03-21T13:27:02.158Z,21.5
2023-03-21T13:32:03.289Z,21.1
2023-03-21T13:37:04.028Z,20.1
2023-03-21T13:42:04.461Z,5.7
2023-03-21T13:47:04.965Z,21
2023-03-21T13:52:05.344Z,18
2023-03-21T13:57:05.859Z,16.5
2023-03-21T14:02:07.960Z,21.6
2023-03-21T14:07:08.618Z,17.6
2023-03-21T14:12:09.384Z,18.9
2023-03-21T14:17:10.016Z,21.2
2023-03-21T14:22:10.528Z,27.8
2023-03-21T14:27:12.172Z,13.5
2023-03-21T14:32:13.192Z,12.7
2023-03-21T14:37:13.877Z,13.7
2023-03-21T14:42:14.261Z,38.3
2023-03-21T14:47:14.794Z,15.2
2023-03-21T14:52:15.178Z,10.6
2023-03-21T14:57:15.768Z,20.1
2023-03-21T15:02:16.739Z,46
2023-03-21T15:07:18.397Z,49.2
2023-03-21T15:12:18.916Z,14.1
2023-03-21T15:17:19.814Z,17.6
2023-03-21T15:22:20.234Z,13.7
2023-03-21T15:27:20.722Z,20.4
2023-03-21T15:32:21.604Z,42.2
2023-03-21T15:37:22.302Z,35.6
2023-03-21T15:42:22.763Z,24.9
2023-03-21T15:47:23.462Z,28.3
2023-03-21T15:52:23.900Z,23.8
2023-03-21T15:57:24.426Z,20.6
2023-03-21T16:02:25.245Z,17.7
2023-03-21T16:07:25.793Z,29.6
2023-03-21T16:12:26.256Z,36.5
2023-03-21T16:17:26.780Z,28.3
2023-03-21T16:22:27.170Z,18.1
2023-03-21T16:27:27.622Z,14.5
2023-03-21T16:32:28.163Z,18.1
2023-03-21T16:37:28.733Z,21.4
2023-03-21T16:42:29.205Z,16.7
2023-03-21T16:47:29.972Z,19.6
2023-03-21T16:52:30.358Z,22.1
2023-03-21T16:57:30.752Z,19.4
2023-03-21T17:02:31.480Z,14.1
2023-03-21T17:07:32.365Z,21.1
2023-03-21T17:12:32.944Z,22.7
2023-03-21T17:17:33.607Z,9.9
2023-03-21T17:22:34.266Z,16
2023-03-21T17:27:34.753Z,29.1
2023-03-21T17:32:35.238Z,39.9
2023-03-21T17:37:35.745Z,23.9
2023-03-21T17:42:36.172Z,19.9
2023-03-21T17:47:37.073Z,26.4
2023-03-21T17:52:37.491Z,21.3
2023-03-21T17:57:37.894Z,19.4
2023-03-21T18:02:38.650Z,26.4
2023-03-21T18:08:07.550Z,27.3
2023-03-21T18:12:41.817Z,22
2023-03-21T18:17:42.188Z,10.8
2023-03-21T18:22:42.597Z,8
2023-03-21T18:28:03.144Z,7.9
2023-03-21T18:32:52.343Z,6.7
2023-03-21T18:37:55.822Z,9.5
2023-03-21T18:43:47.262Z,8.8
2023-03-21T18:48:07.121Z,16.7
2023-03-21T18:53:07.579Z,17.7
2023-03-21T18:58:07.956Z,20.6
2023-03-21T19:03:19.057Z,15.6
2023-03-21T19:08:15.410Z,13.9
2023-03-21T19:13:16.196Z,19.2
2023-03-21T19:18:37.542Z,22
2023-03-21T19:23:24.677Z,13.2
2023-03-21T19:28:29.490Z,15.8
2023-03-21T19:33:30.217Z,12
2023-03-21T19:38:30.788Z,20.1
2023-03-21T19:43:33.260Z,15.8
2023-03-21T19:48:34.011Z,13.1
2023-03-21T19:53:34.517Z,22.1
2023-03-21T19:58:34.962Z,27.5
2023-03-21T20:03:35.676Z,18.7
2023-03-21T20:09:05.233Z,12.1
2023-03-21T20:13:44.337Z,14
2023-03-21T20:18:44.974Z,17.1
2023-03-21T20:23:45.370Z,19.2
2023-03-21T20:28:56.370Z,23.4
2023-03-21T20:33:53.552Z,15.6
2023-03-21T20:38:54.272Z,16.9
2023-03-21T20:49:01.966Z,21.7
2023-03-21T20:54:02.315Z,23.2
2023-03-21T20:59:15.618Z,24
2023-03-21T21:04:06.140Z,23.6
2023-03-21T21:09:07.069Z,25.6
2023-03-21T21:14:10.206Z,27.6
2023-03-21T21:19:10.628Z,24.1
2023-03-21T21:24:11.241Z,19.3
2023-03-21T21:29:14.386Z,23.8
2023-03-21T21:34:14.825Z,27
2023-03-21T21:39:15.741Z,18.2
2023-03-21T21:44:16.267Z,18.4
2023-03-21T21:49:16.892Z,21.2
2023-03-21T21:54:17.354Z,27.4
2023-03-21T21:59:18.095Z,25.8
2023-03-21T22:04:18.986Z,20.3
2023-03-21T22:14:21.160Z,24.5
2023-03-21T22:19:21.695Z,21.2
2023-03-21T22:24:22.129Z,17.3
2023-03-21T22:29:22.584Z,18.4
2023-03-21T22:34:23.304Z,23.2
2023-03-21T22:39:24.685Z,20
2023-03-21T22:44:25.209Z,22.1
2023-03-21T22:49:25.959Z,28.3
2023-03-21T22:54:26.439Z,20.2
2023-03-21T22:59:26.897Z,22.5
2023-03-21T23:04:27.661Z,20.8
2023-03-21T23:09:28.386Z,21.4
2023-03-21T23:14:28.990Z,22
2023-03-21T23:19:29.700Z,22.5
2023-03-21T23:24:30.173Z,24
2023-03-21T23:29:39.762Z,21.8
2023-03-21T23:34:40.346Z,24.9
2023-03-21T23:39:41.324Z,23.9
2023-03-21T23:44:44.184Z,26.4
2023-03-21T23:49:44.968Z,27.2
2023-03-21T23:54:45.806Z,24.3
2023-03-21T23:59:46.974Z,28.7
